Centerville, Minnesota
Current Conditions -  °F | °C
As of 6:50 PM on Saturday 22 Nov 2014 (Local Time) from KANE Reporting Station
Haze Haze  
Wind Chill: 30°   Ceiling: 400
Heat Index: 37°   Visibility: 3mi
Dew Point: 37°   Wind: 12mph
Humidity: 100%   Direction: 150°SSE
Pressure: 29.61"   Gusts: 16mph
Location:  45.1696°N, 92.9662°W
Report Text: KANE 230050Z 15010G14KT 3SM BR OVC004 03/03 A2961
Loading
Personal Weather Stations






























Interactive Weather Map New forecast layout! Learn more

10-Day Weather Forecast

Advertisements
Track Severe Weather on mobile